sensor_id;sensor_type;location;lat;lon;timestamp;P1;durP1;ratioP1;P2;durP2;ratioP2
17520;SDS011;8878;-33.370;-70.552;2023-02-24T00:00:37;2.92;;;2.05;;
17520;SDS011;8878;-33.370;-70.552;2023-02-24T00:03:16;2.63;;;2.10;;
17520;SDS011;8878;-33.370;-70.552;2023-02-24T00:05:45;4.55;;;2.00;;
17520;SDS011;8878;-33.370;-70.552;2023-02-24T00:08:15;5.75;;;2.08;;
17520;SDS011;8878;-33.370;-70.552;2023-02-24T00:10:46;2.55;;;1.40;;
17520;SDS011;8878;-33.370;-70.552;2023-02-24T00:13:17;2.72;;;1.85;;
17520;SDS011;8878;-33.370;-70.552;2023-02-24T00:15:57;6.05;;;1.70;;
17520;SDS011;8878;-33.370;-70.552;2023-02-24T00:18:27;4.70;;;1.88;;
17520;SDS011;8878;-33.370;-70.552;2023-02-24T00:21:01;4.47;;;1.98;;
17520;SDS011;8878;-33.370;-70.552;2023-02-24T00:23:33;3.03;;;1.27;;
17520;SDS011;8878;-33.370;-70.552;2023-02-24T00:26:05;6.80;;;2.13;;
17520;SDS011;8878;-33.370;-70.552;2023-02-24T00:28:36;4.32;;;1.48;;
17520;SDS011;8878;-33.370;-70.552;2023-02-24T00:31:06;8.50;;;1.95;;
17520;SDS011;8878;-33.370;-70.552;2023-02-24T00:33:39;5.35;;;1.77;;
17520;SDS011;8878;-33.370;-70.552;2023-02-24T00:36:09;2.13;;;1.80;;
17520;SDS011;8878;-33.370;-70.552;2023-02-24T00:38:40;6.13;;;1.80;;
17520;SDS011;8878;-33.370;-70.552;2023-02-24T00:41:14;10.23;;;1.90;;
17520;SDS011;8878;-33.370;-70.552;2023-02-24T00:43:48;8.52;;;2.00;;
17520;SDS011;8878;-33.370;-70.552;2023-02-24T00:46:18;3.90;;;1.90;;
17520;SDS011;8878;-33.370;-70.552;2023-02-24T00:48:50;15.75;;;2.33;;
17520;SDS011;8878;-33.370;-70.552;2023-02-24T00:51:21;5.43;;;1.55;;
17520;SDS011;8878;-33.370;-70.552;2023-02-24T00:53:52;10.05;;;2.65;;
17520;SDS011;8878;-33.370;-70.552;2023-02-24T00:56:24;8.00;;;2.10;;
17520;SDS011;8878;-33.370;-70.552;2023-02-24T00:58:56;4.65;;;1.50;;
17520;SDS011;8878;-33.370;-70.552;2023-02-24T01:01:28;5.55;;;1.88;;
17520;SDS011;8878;-33.370;-70.552;2023-02-24T01:03:59;2.63;;;2.42;;
17520;SDS011;8878;-33.370;-70.552;2023-02-24T01:06:32;2.20;;;1.40;;
17520;SDS011;8878;-33.370;-70.552;2023-02-24T01:09:02;3.30;;;1.77;;
17520;SDS011;8878;-33.370;-70.552;2023-02-24T01:11:34;3.05;;;1.85;;
17520;SDS011;8878;-33.370;-70.552;2023-02-24T01:14:20;10.20;;;2.05;;
17520;SDS011;8878;-33.370;-70.552;2023-02-24T01:16:51;2.60;;;1.88;;
17520;SDS011;8878;-33.370;-70.552;2023-02-24T01:19:21;3.95;;;1.90;;
17520;SDS011;8878;-33.370;-70.552;2023-02-24T01:21:56;5.88;;;2.10;;
17520;SDS011;8878;-33.370;-70.552;2023-02-24T01:24:26;9.90;;;1.60;;
17520;SDS011;8878;-33.370;-70.552;2023-02-24T01:26:58;12.60;;;2.75;;
17520;SDS011;8878;-33.370;-70.552;2023-02-24T01:29:27;5.53;;;2.45;;
17520;SDS011;8878;-33.370;-70.552;2023-02-24T01:31:57;3.35;;;2.17;;
17520;SDS011;8878;-33.370;-70.552;2023-02-24T01:34:27;2.63;;;1.90;;
17520;SDS011;8878;-33.370;-70.552;2023-02-24T01:36:56;3.80;;;2.20;;
17520;SDS011;8878;-33.370;-70.552;2023-02-24T01:39:26;3.58;;;2.20;;
17520;SDS011;8878;-33.370;-70.552;2023-02-24T01:41:57;1.65;;;1.48;;
17520;SDS011;8878;-33.370;-70.552;2023-02-24T01:47:32;3.67;;;2.08;;
17520;SDS011;8878;-33.370;-70.552;2023-02-24T01:50:03;1.98;;;1.40;;
17520;SDS011;8878;-33.370;-70.552;2023-02-24T01:52:35;4.13;;;2.42;;
17520;SDS011;8878;-33.370;-70.552;2023-02-24T01:55:06;4.90;;;2.40;;
17520;SDS011;8878;-33.370;-70.552;2023-02-24T01:57:41;2.38;;;2.08;;
17520;SDS011;8878;-33.370;-70.552;2023-02-24T02:00:12;1.63;;;1.52;;
17520;SDS011;8878;-33.370;-70.552;2023-02-24T02:03:03;1.98;;;1.52;;
17520;SDS011;8878;-33.370;-70.552;2023-02-24T02:05:40;1.73;;;1.42;;
17520;SDS011;8878;-33.370;-70.552;2023-02-24T02:08:13;3.92;;;1.65;;
17520;SDS011;8878;-33.370;-70.552;2023-02-24T02:10:45;5.20;;;1.88;;
17520;SDS011;8878;-33.370;-70.552;2023-02-24T02:13:16;2.25;;;2.05;;
17520;SDS011;8878;-33.370;-70.552;2023-02-24T02:15:49;8.25;;;1.75;;
17520;SDS011;8878;-33.370;-70.552;2023-02-24T02:18:28;2.38;;;1.73;;
17520;SDS011;8878;-33.370;-70.552;2023-02-24T02:21:20;7.28;;;2.28;;
17520;SDS011;8878;-33.370;-70.552;2023-02-24T02:24:16;4.53;;;2.30;;
17520;SDS011;8878;-33.370;-70.552;2023-02-24T02:36:35;6.43;;;1.90;;
17520;SDS011;8878;-33.370;-70.552;2023-02-24T02:39:15;2.38;;;1.92;;
17520;SDS011;8878;-33.370;-70.552;2023-02-24T02:41:51;5.20;;;2.30;;
17520;SDS011;8878;-33.370;-70.552;2023-02-24T02:44:28;3.08;;;2.25;;
17520;SDS011;8878;-33.370;-70.552;2023-02-24T02:47:07;4.50;;;2.38;;
17520;SDS011;8878;-33.370;-70.552;2023-02-24T02:49:41;3.80;;;1.60;;
17520;SDS011;8878;-33.370;-70.552;2023-02-24T02:52:17;4.70;;;2.03;;
17520;SDS011;8878;-33.370;-70.552;2023-02-24T02:54:52;4.60;;;2.28;;
17520;SDS011;8878;-33.370;-70.552;2023-02-24T02:57:26;5.65;;;2.03;;
17520;SDS011;8878;-33.370;-70.552;2023-02-24T02:59:59;6.07;;;1.80;;
17520;SDS011;8878;-33.370;-70.552;2023-02-24T03:02:38;4.72;;;1.88;;
17520;SDS011;8878;-33.370;-70.552;2023-02-24T03:05:10;7.20;;;1.77;;
17520;SDS011;8878;-33.370;-70.552;2023-02-24T03:07:48;4.38;;;2.40;;
17520;SDS011;8878;-33.370;-70.552;2023-02-24T03:10:22;4.10;;;2.22;;
17520;SDS011;8878;-33.370;-70.552;2023-02-24T03:12:54;1.95;;;1.35;;
17520;SDS011;8878;-33.370;-70.552;2023-02-24T03:15:27;4.35;;;1.98;;
17520;SDS011;8878;-33.370;-70.552;2023-02-24T03:18:03;3.10;;;1.95;;
17520;SDS011;8878;-33.370;-70.552;2023-02-24T03:20:40;2.10;;;1.90;;
17520;SDS011;8878;-33.370;-70.552;2023-02-24T03:23:16;1.95;;;1.50;;
17520;SDS011;8878;-33.370;-70.552;2023-02-24T03:25:52;3.17;;;1.73;;
17520;SDS011;8878;-33.370;-70.552;2023-02-24T03:28:26;2.92;;;1.58;;
17520;SDS011;8878;-33.370;-70.552;2023-02-24T03:31:04;2.50;;;1.73;;
17520;SDS011;8878;-33.370;-70.552;2023-02-24T03:33:37;1.50;;;1.40;;
17520;SDS011;8878;-33.370;-70.552;2023-02-24T03:36:11;2.45;;;1.67;;
17520;SDS011;8878;-33.370;-70.552;2023-02-24T03:38:43;2.55;;;1.52;;
17520;SDS011;8878;-33.370;-70.552;2023-02-24T03:41:14;3.20;;;1.92;;
17520;SDS011;8878;-33.370;-70.552;2023-02-24T03:43:43;3.50;;;1.77;;
17520;SDS011;8878;-33.370;-70.552;2023-02-24T03:46:16;6.00;;;2.35;;
17520;SDS011;8878;-33.370;-70.552;2023-02-24T03:48:47;7.93;;;2.70;;
17520;SDS011;8878;-33.370;-70.552;2023-02-24T03:51:24;7.07;;;3.42;;
17520;SDS011;8878;-33.370;-70.552;2023-02-24T03:53:59;3.22;;;1.90;;
17520;SDS011;8878;-33.370;-70.552;2023-02-24T03:56:44;5.43;;;2.22;;
17520;SDS011;8878;-33.370;-70.552;2023-02-24T03:59:27;5.80;;;2.20;;
17520;SDS011;8878;-33.370;-70.552;2023-02-24T04:02:09;6.25;;;1.85;;
17520;SDS011;8878;-33.370;-70.552;2023-02-24T04:04:45;2.35;;;1.90;;
17520;SDS011;8878;-33.370;-70.552;2023-02-24T04:07:22;5.20;;;2.35;;
17520;SDS011;8878;-33.370;-70.552;2023-02-24T04:10:06;2.30;;;1.77;;
17520;SDS011;8878;-33.370;-70.552;2023-02-24T04:12:41;2.38;;;1.73;;
17520;SDS011;8878;-33.370;-70.552;2023-02-24T04:15:18;2.60;;;1.98;;
17520;SDS011;8878;-33.370;-70.552;2023-02-24T04:17:54;3.42;;;2.22;;
17520;SDS011;8878;-33.370;-70.552;2023-02-24T04:20:27;4.88;;;2.42;;
17520;SDS011;8878;-33.370;-70.552;2023-02-24T04:23:01;2.85;;;1.38;;
17520;SDS011;8878;-33.370;-70.552;2023-02-24T04:25:36;3.22;;;1.98;;
17520;SDS011;8878;-33.370;-70.552;2023-02-24T04:28:10;2.88;;;1.85;;
17520;SDS011;8878;-33.370;-70.552;2023-02-24T04:30:42;2.28;;;1.80;;
17520;SDS011;8878;-33.370;-70.552;2023-02-24T04:33:15;2.25;;;1.48;;
17520;SDS011;8878;-33.370;-70.552;2023-02-24T04:35:45;9.00;;;2.20;;
17520;SDS011;8878;-33.370;-70.552;2023-02-24T04:38:18;10.75;;;2.80;;
17520;SDS011;8878;-33.370;-70.552;2023-02-24T04:40:50;4.80;;;2.28;;
17520;SDS011;8878;-33.370;-70.552;2023-02-24T04:43:20;5.35;;;1.90;;
17520;SDS011;8878;-33.370;-70.552;2023-02-24T04:45:49;6.85;;;2.00;;
17520;SDS011;8878;-33.370;-70.552;2023-02-24T04:48:22;2.78;;;2.35;;
17520;SDS011;8878;-33.370;-70.552;2023-02-24T04:50:52;7.25;;;1.80;;
17520;SDS011;8878;-33.370;-70.552;2023-02-24T04:53:21;2.53;;;1.90;;
17520;SDS011;8878;-33.370;-70.552;2023-02-24T04:55:54;7.57;;;1.50;;
17520;SDS011;8878;-33.370;-70.552;2023-02-24T04:58:24;3.67;;;2.05;;
17520;SDS011;8878;-33.370;-70.552;2023-02-24T05:00:54;10.07;;;1.38;;
17520;SDS011;8878;-33.370;-70.552;2023-02-24T05:03:23;1.67;;;1.10;;
17520;SDS011;8878;-33.370;-70.552;2023-02-24T05:05:55;2.60;;;1.40;;
17520;SDS011;8878;-33.370;-70.552;2023-02-24T05:08:26;3.20;;;1.60;;
17520;SDS011;8878;-33.370;-70.552;2023-02-24T05:10:58;3.35;;;2.13;;
17520;SDS011;8878;-33.370;-70.552;2023-02-24T05:13:31;1.50;;;1.40;;
17520;SDS011;8878;-33.370;-70.552;2023-02-24T05:16:04;3.10;;;2.40;;
17520;SDS011;8878;-33.370;-70.552;2023-02-24T05:18:34;4.25;;;2.53;;
17520;SDS011;8878;-33.370;-70.552;2023-02-24T05:21:05;11.40;;;1.92;;
17520;SDS011;8878;-33.370;-70.552;2023-02-24T05:23:52;2.53;;;1.05;;
17520;SDS011;8878;-33.370;-70.552;2023-02-24T05:26:25;4.10;;;2.00;;
17520;SDS011;8878;-33.370;-70.552;2023-02-24T05:28:56;2.63;;;1.10;;
17520;SDS011;8878;-33.370;-70.552;2023-02-24T05:31:27;2.05;;;1.13;;
17520;SDS011;8878;-33.370;-70.552;2023-02-24T05:33:58;4.05;;;2.50;;
17520;SDS011;8878;-33.370;-70.552;2023-02-24T05:36:30;5.28;;;2.28;;
17520;SDS011;8878;-33.370;-70.552;2023-02-24T05:39:01;2.42;;;2.05;;
17520;SDS011;8878;-33.370;-70.552;2023-02-24T05:41:35;2.80;;;1.30;;
17520;SDS011;8878;-33.370;-70.552;2023-02-24T05:44:07;2.80;;;2.35;;
17520;SDS011;8878;-33.370;-70.552;2023-02-24T05:46:40;11.90;;;2.70;;
17520;SDS011;8878;-33.370;-70.552;2023-02-24T05:49:12;4.78;;;1.23;;
17520;SDS011;8878;-33.370;-70.552;2023-02-24T05:51:45;3.30;;;2.20;;
17520;SDS011;8878;-33.370;-70.552;2023-02-24T05:54:19;5.55;;;1.75;;
17520;SDS011;8878;-33.370;-70.552;2023-02-24T05:56:52;3.20;;;1.88;;
17520;SDS011;8878;-33.370;-70.552;2023-02-24T05:59:23;5.28;;;2.20;;
17520;SDS011;8878;-33.370;-70.552;2023-02-24T06:01:57;2.10;;;1.88;;
17520;SDS011;8878;-33.370;-70.552;2023-02-24T06:04:31;3.17;;;2.25;;
17520;SDS011;8878;-33.370;-70.552;2023-02-24T06:07:11;4.43;;;1.92;;
17520;SDS011;8878;-33.370;-70.552;2023-02-24T06:09:45;3.33;;;1.63;;
17520;SDS011;8878;-33.370;-70.552;2023-02-24T06:12:17;3.67;;;1.48;;
17520;SDS011;8878;-33.370;-70.552;2023-02-24T06:14:47;2.65;;;2.08;;
17520;SDS011;8878;-33.370;-70.552;2023-02-24T06:17:18;3.10;;;2.35;;
17520;SDS011;8878;-33.370;-70.552;2023-02-24T06:19:49;4.68;;;2.15;;
17520;SDS011;8878;-33.370;-70.552;2023-02-24T06:22:20;2.90;;;1.80;;
17520;SDS011;8878;-33.370;-70.552;2023-02-24T06:24:52;2.40;;;1.83;;
17520;SDS011;8878;-33.370;-70.552;2023-02-24T06:27:23;4.03;;;2.03;;
17520;SDS011;8878;-33.370;-70.552;2023-02-24T06:29:53;3.85;;;1.52;;
17520;SDS011;8878;-33.370;-70.552;2023-02-24T06:32:24;2.97;;;1.80;;
17520;SDS011;8878;-33.370;-70.552;2023-02-24T06:34:54;4.43;;;2.03;;
17520;SDS011;8878;-33.370;-70.552;2023-02-24T06:37:24;2.90;;;2.05;;
17520;SDS011;8878;-33.370;-70.552;2023-02-24T06:39:54;6.55;;;2.28;;
17520;SDS011;8878;-33.370;-70.552;2023-02-24T06:42:26;4.07;;;1.90;;
17520;SDS011;8878;-33.370;-70.552;2023-02-24T06:44:56;5.60;;;2.83;;
17520;SDS011;8878;-33.370;-70.552;2023-02-24T06:47:25;1.48;;;1.38;;
17520;SDS011;8878;-33.370;-70.552;2023-02-24T06:49:55;4.43;;;1.73;;
17520;SDS011;8878;-33.370;-70.552;2023-02-24T06:52:24;6.05;;;1.40;;
17520;SDS011;8878;-33.370;-70.552;2023-02-24T06:54:55;2.85;;;1.20;;
17520;SDS011;8878;-33.370;-70.552;2023-02-24T06:57:26;1.70;;;1.38;;
17520;SDS011;8878;-33.370;-70.552;2023-02-24T06:59:57;5.88;;;1.50;;
17520;SDS011;8878;-33.370;-70.552;2023-02-24T07:02:41;3.65;;;2.05;;
17520;SDS011;8878;-33.370;-70.552;2023-02-24T07:05:10;4.57;;;2.53;;
17520;SDS011;8878;-33.370;-70.552;2023-02-24T07:07:41;3.72;;;1.20;;
17520;SDS011;8878;-33.370;-70.552;2023-02-24T07:10:12;4.00;;;1.60;;
17520;SDS011;8878;-33.370;-70.552;2023-02-24T07:12:44;1.90;;;1.65;;
17520;SDS011;8878;-33.370;-70.552;2023-02-24T07:15:16;6.20;;;1.75;;
17520;SDS011;8878;-33.370;-70.552;2023-02-24T07:17:46;2.67;;;2.40;;
17520;SDS011;8878;-33.370;-70.552;2023-02-24T07:20:15;4.15;;;1.35;;
17520;SDS011;8878;-33.370;-70.552;2023-02-24T07:22:50;2.45;;;1.95;;
17520;SDS011;8878;-33.370;-70.552;2023-02-24T07:25:19;5.95;;;1.38;;
17520;SDS011;8878;-33.370;-70.552;2023-02-24T07:28:00;2.75;;;1.63;;
17520;SDS011;8878;-33.370;-70.552;2023-02-24T07:30:29;12.05;;;2.53;;
17520;SDS011;8878;-33.370;-70.552;2023-02-24T07:32:59;5.55;;;1.75;;
17520;SDS011;8878;-33.370;-70.552;2023-02-24T07:35:30;7.40;;;1.65;;
17520;SDS011;8878;-33.370;-70.552;2023-02-24T07:38:00;1.73;;;1.50;;
17520;SDS011;8878;-33.370;-70.552;2023-02-24T07:40:30;2.38;;;1.63;;
17520;SDS011;8878;-33.370;-70.552;2023-02-24T07:43:02;3.42;;;1.50;;
17520;SDS011;8878;-33.370;-70.552;2023-02-24T07:45:32;2.80;;;1.17;;
17520;SDS011;8878;-33.370;-70.552;2023-02-24T07:48:01;1.48;;;1.38;;
17520;SDS011;8878;-33.370;-70.552;2023-02-24T07:50:31;4.57;;;2.00;;
17520;SDS011;8878;-33.370;-70.552;2023-02-24T07:53:00;2.25;;;1.23;;
17520;SDS011;8878;-33.370;-70.552;2023-02-24T07:55:30;5.00;;;1.65;;
17520;SDS011;8878;-33.370;-70.552;2023-02-24T07:58:04;7.93;;;1.60;;
17520;SDS011;8878;-33.370;-70.552;2023-02-24T08:00:35;6.93;;;1.80;;
17520;SDS011;8878;-33.370;-70.552;2023-02-24T08:03:25;1.10;;;1.00;;
17520;SDS011;8878;-33.370;-70.552;2023-02-24T08:05:55;1.60;;;1.33;;
17520;SDS011;8878;-33.370;-70.552;2023-02-24T08:08:38;1.45;;;1.25;;
17520;SDS011;8878;-33.370;-70.552;2023-02-24T08:11:23;5.85;;;2.28;;
17520;SDS011;8878;-33.370;-70.552;2023-02-24T08:14:01;1.58;;;1.45;;
17520;SDS011;8878;-33.370;-70.552;2023-02-24T08:16:35;5.47;;;1.60;;
17520;SDS011;8878;-33.370;-70.552;2023-02-24T08:19:06;1.67;;;1.42;;
17520;SDS011;8878;-33.370;-70.552;2023-02-24T08:21:38;2.17;;;1.63;;
17520;SDS011;8878;-33.370;-70.552;2023-02-24T08:24:13;0.68;;;0.68;;
17520;SDS011;8878;-33.370;-70.552;2023-02-24T08:26:44;1.92;;;1.48;;
17520;SDS011;8878;-33.370;-70.552;2023-02-24T08:29:31;4.88;;;1.92;;
17520;SDS011;8878;-33.370;-70.552;2023-02-24T08:32:05;2.95;;;2.63;;
17520;SDS011;8878;-33.370;-70.552;2023-02-24T08:34:35;6.60;;;1.30;;
17520;SDS011;8878;-33.370;-70.552;2023-02-24T08:37:05;1.02;;;1.02;;
17520;SDS011;8878;-33.370;-70.552;2023-02-24T08:39:35;4.53;;;1.52;;
17520;SDS011;8878;-33.370;-70.552;2023-02-24T08:42:05;3.95;;;1.38;;
17520;SDS011;8878;-33.370;-70.552;2023-02-24T08:44:41;22.30;;;2.08;;
17520;SDS011;8878;-33.370;-70.552;2023-02-24T08:47:11;2.03;;;1.65;;
17520;SDS011;8878;-33.370;-70.552;2023-02-24T08:49:45;2.63;;;1.80;;
17520;SDS011;8878;-33.370;-70.552;2023-02-24T08:52:18;2.63;;;1.75;;
17520;SDS011;8878;-33.370;-70.552;2023-02-24T08:54:47;3.40;;;1.70;;
17520;SDS011;8878;-33.370;-70.552;2023-02-24T08:57:19;6.25;;;2.10;;
17520;SDS011;8878;-33.370;-70.552;2023-02-24T08:59:52;1.35;;;1.10;;
17520;SDS011;8878;-33.370;-70.552;2023-02-24T09:02:24;3.17;;;1.17;;
17520;SDS011;8878;-33.370;-70.552;2023-02-24T09:05:03;2.75;;;1.45;;
17520;SDS011;8878;-33.370;-70.552;2023-02-24T09:07:35;1.92;;;1.70;;
17520;SDS011;8878;-33.370;-70.552;2023-02-24T09:10:07;1.20;;;1.10;;
17520;SDS011;8878;-33.370;-70.552;2023-02-24T09:12:42;2.67;;;1.73;;
17520;SDS011;8878;-33.370;-70.552;2023-02-24T09:15:15;2.00;;;1.33;;
17520;SDS011;8878;-33.370;-70.552;2023-02-24T09:17:45;1.02;;;1.00;;
17520;SDS011;8878;-33.370;-70.552;2023-02-24T09:20:26;2.78;;;1.83;;
17520;SDS011;8878;-33.370;-70.552;2023-02-24T09:23:11;3.67;;;1.30;;
17520;SDS011;8878;-33.370;-70.552;2023-02-24T09:25:45;1.85;;;1.75;;
17520;SDS011;8878;-33.370;-70.552;2023-02-24T09:28:19;1.58;;;1.40;;
17520;SDS011;8878;-33.370;-70.552;2023-02-24T09:30:51;4.00;;;1.73;;
17520;SDS011;8878;-33.370;-70.552;2023-02-24T09:33:23;5.68;;;2.00;;
17520;SDS011;8878;-33.370;-70.552;2023-02-24T09:35:54;1.95;;;1.48;;
17520;SDS011;8878;-33.370;-70.552;2023-02-24T09:38:37;1.65;;;1.55;;
17520;SDS011;8878;-33.370;-70.552;2023-02-24T09:41:28;2.78;;;1.77;;
17520;SDS011;8878;-33.370;-70.552;2023-02-24T09:44:19;2.95;;;1.90;;
17520;SDS011;8878;-33.370;-70.552;2023-02-24T09:46:56;2.45;;;1.02;;
17520;SDS011;8878;-33.370;-70.552;2023-02-24T09:49:41;5.93;;;2.10;;
17520;SDS011;8878;-33.370;-70.552;2023-02-24T09:52:15;6.55;;;1.65;;
17520;SDS011;8878;-33.370;-70.552;2023-02-24T09:54:46;2.42;;;1.17;;
17520;SDS011;8878;-33.370;-70.552;2023-02-24T09:57:44;13.68;;;2.25;;
17520;SDS011;8878;-33.370;-70.552;2023-02-24T10:00:29;5.45;;;1.73;;
17520;SDS011;8878;-33.370;-70.552;2023-02-24T10:03:03;9.38;;;1.58;;
17520;SDS011;8878;-33.370;-70.552;2023-02-24T10:05:45;1.80;;;1.70;;
17520;SDS011;8878;-33.370;-70.552;2023-02-24T10:08:27;9.48;;;1.77;;
17520;SDS011;8878;-33.370;-70.552;2023-02-24T10:11:03;1.55;;;1.45;;
17520;SDS011;8878;-33.370;-70.552;2023-02-24T10:13:39;2.38;;;1.52;;
17520;SDS011;8878;-33.370;-70.552;2023-02-24T10:16:14;4.93;;;1.73;;
17520;SDS011;8878;-33.370;-70.552;2023-02-24T10:18:51;2.47;;;2.00;;
17520;SDS011;8878;-33.370;-70.552;2023-02-24T10:21:41;1.45;;;0.98;;
17520;SDS011;8878;-33.370;-70.552;2023-02-24T10:24:16;4.65;;;2.05;;
17520;SDS011;8878;-33.370;-70.552;2023-02-24T10:26:54;1.65;;;1.55;;
17520;SDS011;8878;-33.370;-70.552;2023-02-24T10:29:30;2.85;;;1.67;;
17520;SDS011;8878;-33.370;-70.552;2023-02-24T10:32:19;2.60;;;2.00;;
17520;SDS011;8878;-33.370;-70.552;2023-02-24T10:35:00;3.47;;;1.20;;
17520;SDS011;8878;-33.370;-70.552;2023-02-24T10:37:31;1.33;;;1.23;;
17520;SDS011;8878;-33.370;-70.552;2023-02-24T10:40:00;10.15;;;2.78;;
17520;SDS011;8878;-33.370;-70.552;2023-02-24T10:42:34;2.03;;;1.48;;
17520;SDS011;8878;-33.370;-70.552;2023-02-24T10:45:12;12.93;;;1.38;;
17520;SDS011;8878;-33.370;-70.552;2023-02-24T10:47:42;1.60;;;1.50;;
17520;SDS011;8878;-33.370;-70.552;2023-02-24T10:50:24;4.43;;;0.90;;
17520;SDS011;8878;-33.370;-70.552;2023-02-24T10:53:00;11.30;;;1.75;;
17520;SDS011;8878;-33.370;-70.552;2023-02-24T10:56:00;4.97;;;2.03;;
17520;SDS011;8878;-33.370;-70.552;2023-02-24T10:59:01;2.47;;;1.83;;
17520;SDS011;8878;-33.370;-70.552;2023-02-24T11:01:51;7.15;;;1.88;;
17520;SDS011;8878;-33.370;-70.552;2023-02-24T11:04:29;8.13;;;2.10;;
17520;SDS011;8878;-33.370;-70.552;2023-02-24T11:07:20;3.10;;;1.98;;
17520;SDS011;8878;-33.370;-70.552;2023-02-24T11:10:10;2.25;;;2.10;;
17520;SDS011;8878;-33.370;-70.552;2023-02-24T11:12:44;1.73;;;1.58;;
17520;SDS011;8878;-33.370;-70.552;2023-02-24T11:15:31;1.73;;;1.50;;
17520;SDS011;8878;-33.370;-70.552;2023-02-24T11:18:20;2.67;;;1.85;;
17520;SDS011;8878;-33.370;-70.552;2023-02-24T11:20:51;3.60;;;1.55;;
17520;SDS011;8878;-33.370;-70.552;2023-02-24T11:23:25;3.13;;;1.98;;
17520;SDS011;8878;-33.370;-70.552;2023-02-24T11:25:58;4.43;;;1.25;;
17520;SDS011;8878;-33.370;-70.552;2023-02-24T11:28:36;1.88;;;1.77;;
17520;SDS011;8878;-33.370;-70.552;2023-02-24T11:31:21;1.85;;;1.30;;
17520;SDS011;8878;-33.370;-70.552;2023-02-24T11:34:02;3.67;;;2.00;;
17520;SDS011;8878;-33.370;-70.552;2023-02-24T11:36:38;2.45;;;1.30;;
17520;SDS011;8878;-33.370;-70.552;2023-02-24T11:39:24;1.90;;;1.35;;
17520;SDS011;8878;-33.370;-70.552;2023-02-24T11:42:06;1.88;;;1.38;;
17520;SDS011;8878;-33.370;-70.552;2023-02-24T11:44:42;3.63;;;2.10;;
17520;SDS011;8878;-33.370;-70.552;2023-02-24T11:47:20;2.10;;;1.77;;
17520;SDS011;8878;-33.370;-70.552;2023-02-24T11:50:02;3.72;;;1.52;;
17520;SDS011;8878;-33.370;-70.552;2023-02-24T11:52:45;3.83;;;2.53;;
17520;SDS011;8878;-33.370;-70.552;2023-02-24T11:55:22;12.07;;;1.80;;
17520;SDS011;8878;-33.370;-70.552;2023-02-24T11:58:02;1.88;;;1.77;;
17520;SDS011;8878;-33.370;-70.552;2023-02-24T12:00:39;3.22;;;2.40;;
17520;SDS011;8878;-33.370;-70.552;2023-02-24T12:03:16;2.92;;;1.52;;
17520;SDS011;8878;-33.370;-70.552;2023-02-24T12:06:00;5.93;;;1.95;;
17520;SDS011;8878;-33.370;-70.552;2023-02-24T12:08:37;2.33;;;1.10;;
17520;SDS011;8878;-33.370;-70.552;2023-02-24T12:11:15;4.13;;;1.90;;
17520;SDS011;8878;-33.370;-70.552;2023-02-24T12:13:52;4.20;;;1.98;;
17520;SDS011;8878;-33.370;-70.552;2023-02-24T12:16:30;1.73;;;1.15;;
17520;SDS011;8878;-33.370;-70.552;2023-02-24T12:19:05;13.80;;;2.67;;
17520;SDS011;8878;-33.370;-70.552;2023-02-24T12:21:44;3.88;;;2.60;;
17520;SDS011;8878;-33.370;-70.552;2023-02-24T12:24:18;3.95;;;1.98;;
17520;SDS011;8878;-33.370;-70.552;2023-02-24T12:26:52;9.52;;;2.40;;
17520;SDS011;8878;-33.370;-70.552;2023-02-24T12:29:37;3.80;;;1.67;;
17520;SDS011;8878;-33.370;-70.552;2023-02-24T12:32:18;1.45;;;1.27;;
17520;SDS011;8878;-33.370;-70.552;2023-02-24T12:35:01;6.30;;;2.47;;
17520;SDS011;8878;-33.370;-70.552;2023-02-24T12:37:46;4.38;;;1.70;;
17520;SDS011;8878;-33.370;-70.552;2023-02-24T12:40:26;3.35;;;1.73;;
17520;SDS011;8878;-33.370;-70.552;2023-02-24T12:43:07;2.70;;;2.50;;
17520;SDS011;8878;-33.370;-70.552;2023-02-24T12:45:47;1.98;;;1.15;;
17520;SDS011;8878;-33.370;-70.552;2023-02-24T12:48:25;3.05;;;1.88;;
17520;SDS011;8878;-33.370;-70.552;2023-02-24T12:51:15;2.35;;;1.35;;
17520;SDS011;8878;-33.370;-70.552;2023-02-24T12:53:49;2.65;;;2.30;;
17520;SDS011;8878;-33.370;-70.552;2023-02-24T12:56:25;2.47;;;2.05;;
17520;SDS011;8878;-33.370;-70.552;2023-02-24T12:59:04;1.95;;;1.45;;
17520;SDS011;8878;-33.370;-70.552;2023-02-24T13:01:37;1.88;;;1.77;;
17520;SDS011;8878;-33.370;-70.552;2023-02-24T13:04:19;2.35;;;1.88;;
17520;SDS011;8878;-33.370;-70.552;2023-02-24T13:07:11;1.65;;;1.50;;
17520;SDS011;8878;-33.370;-70.552;2023-02-24T13:09:58;2.30;;;1.17;;
17520;SDS011;8878;-33.370;-70.552;2023-02-24T13:12:39;1.55;;;1.38;;
17520;SDS011;8878;-33.370;-70.552;2023-02-24T13:15:19;7.57;;;2.13;;
17520;SDS011;8878;-33.370;-70.552;2023-02-24T13:17:50;4.88;;;1.80;;
17520;SDS011;8878;-33.370;-70.552;2023-02-24T13:20:25;2.50;;;2.15;;
17520;SDS011;8878;-33.370;-70.552;2023-02-24T13:22:58;6.45;;;1.65;;
17520;SDS011;8878;-33.370;-70.552;2023-02-24T13:25:30;1.48;;;1.42;;
17520;SDS011;8878;-33.370;-70.552;2023-02-24T13:28:03;4.47;;;2.17;;
17520;SDS011;8878;-33.370;-70.552;2023-02-24T13:30:55;4.22;;;2.30;;
17520;SDS011;8878;-33.370;-70.552;2023-02-24T13:33:30;3.88;;;2.10;;
17520;SDS011;8878;-33.370;-70.552;2023-02-24T13:36:08;7.43;;;2.50;;
17520;SDS011;8878;-33.370;-70.552;2023-02-24T13:38:40;9.63;;;1.77;;
17520;SDS011;8878;-33.370;-70.552;2023-02-24T13:44:20;3.83;;;2.72;;
17520;SDS011;8878;-33.370;-70.552;2023-02-24T13:47:01;4.55;;;2.20;;
17520;SDS011;8878;-33.370;-70.552;2023-02-24T13:50:16;2.15;;;1.98;;
17520;SDS011;8878;-33.370;-70.552;2023-02-24T13:55:48;9.38;;;3.80;;
17520;SDS011;8878;-33.370;-70.552;2023-02-24T13:58:29;6.47;;;3.17;;
17520;SDS011;8878;-33.370;-70.552;2023-02-24T14:01:11;4.07;;;2.75;;
17520;SDS011;8878;-33.370;-70.552;2023-02-24T14:03:46;8.55;;;4.13;;
17520;SDS011;8878;-33.370;-70.552;2023-02-24T14:06:31;4.25;;;2.85;;
17520;SDS011;8878;-33.370;-70.552;2023-02-24T14:09:01;10.75;;;3.95;;
17520;SDS011;8878;-33.370;-70.552;2023-02-24T14:11:33;7.75;;;3.28;;
17520;SDS011;8878;-33.370;-70.552;2023-02-24T14:14:04;15.50;;;3.70;;
17520;SDS011;8878;-33.370;-70.552;2023-02-24T14:16:40;11.60;;;4.13;;
17520;SDS011;8878;-33.370;-70.552;2023-02-24T14:19:15;10.90;;;3.95;;
17520;SDS011;8878;-33.370;-70.552;2023-02-24T14:21:47;13.27;;;4.50;;
17520;SDS011;8878;-33.370;-70.552;2023-02-24T14:24:18;7.40;;;3.85;;
17520;SDS011;8878;-33.370;-70.552;2023-02-24T14:26:49;9.80;;;4.65;;
17520;SDS011;8878;-33.370;-70.552;2023-02-24T14:29:20;7.80;;;4.13;;
17520;SDS011;8878;-33.370;-70.552;2023-02-24T14:31:52;10.80;;;4.22;;
17520;SDS011;8878;-33.370;-70.552;2023-02-24T14:34:25;12.25;;;4.03;;
17520;SDS011;8878;-33.370;-70.552;2023-02-24T14:36:59;5.78;;;4.22;;
17520;SDS011;8878;-33.370;-70.552;2023-02-24T14:39:32;14.20;;;3.63;;
17520;SDS011;8878;-33.370;-70.552;2023-02-24T14:42:03;10.05;;;4.63;;
17520;SDS011;8878;-33.370;-70.552;2023-02-24T14:44:39;13.07;;;4.55;;
17520;SDS011;8878;-33.370;-70.552;2023-02-24T14:47:11;9.00;;;4.97;;
17520;SDS011;8878;-33.370;-70.552;2023-02-24T14:49:50;9.70;;;4.53;;
17520;SDS011;8878;-33.370;-70.552;2023-02-24T14:52:23;8.55;;;4.32;;
17520;SDS011;8878;-33.370;-70.552;2023-02-24T14:54:58;6.25;;;3.83;;
17520;SDS011;8878;-33.370;-70.552;2023-02-24T14:57:32;9.55;;;4.47;;
17520;SDS011;8878;-33.370;-70.552;2023-02-24T15:00:06;9.77;;;4.82;;
17520;SDS011;8878;-33.370;-70.552;2023-02-24T15:02:47;17.33;;;5.43;;
17520;SDS011;8878;-33.370;-70.552;2023-02-24T15:05:22;11.27;;;4.35;;
17520;SDS011;8878;-33.370;-70.552;2023-02-24T15:07:52;14.00;;;5.03;;
17520;SDS011;8878;-33.370;-70.552;2023-02-24T15:10:26;7.22;;;3.97;;
17520;SDS011;8878;-33.370;-70.552;2023-02-24T15:13:09;10.95;;;3.80;;
17520;SDS011;8878;-33.370;-70.552;2023-02-24T15:15:44;10.35;;;5.03;;
17520;SDS011;8878;-33.370;-70.552;2023-02-24T15:18:16;11.32;;;3.67;;
17520;SDS011;8878;-33.370;-70.552;2023-02-24T15:21:00;11.45;;;4.68;;
17520;SDS011;8878;-33.370;-70.552;2023-02-24T15:23:30;4.70;;;4.03;;
17520;SDS011;8878;-33.370;-70.552;2023-02-24T15:26:02;10.68;;;4.07;;